Airfield :







YOU CAN JOIN US ON...

 
LOGIN :

Register | Disclaimer

   EN    FR    IT 

 









Legend :    VFR   Marginal VFR   IFR   Intensive IFR   Very Intensive IFR
Visi :
Ceiling :
>= 8 km
>= 3000ft
5 to 8 km
1000 to 3000 ft
1500m to 5 km
500 to 1000 ft
800 to 1500m
200 to 500 ft
< 800m
< 200 ft
Symbols :   Thunderstorms  Fog  Heavy snow  Heavy precipitations  Wind > 20 kt






- Airport Elevation : 110 ft
- IATA code : YFB


CYFB - Iqaluit

CURRENT METAR :
  • 180100Z 15012KT 8SM OVC006 01/M00 A2957 RMK ST8 SLP018

EXPIRED METARs :
  • 180000Z 14016G22KT 10SM OVC006 01/00 A2958 RMK ST8 SLP022
  • 172300Z 14013KT 6SM BR OVC005 01/00 A2959 RMK ST8 TOPS 013 SLP025

TAF TAF CYFB
Valid from the 18 at 00:00 until the 19 at 00:00 UTC


172338Z 1800/1824 14012KT 4SM BR OVC005
TEMPO 1800/1803 P6SM NSW SCT005 OVC010
FM180300 15012G22KT 1SM -SN BR OVC003
TEMPO 1803/1815 3SM -SN OVC008
PROB30 1803/1815 1/2SM SN VV002
FM181500 14010KT 5SM -RASN BR BKN008 OVC030 RMK NXT FCST BY 180600Z
CZUL FIR / North America



MET'MAP, your aeronautical weather chart ! - Copyright ORBIFLY December 2007 - Disclaimer

ORBIFLY MET'MAP TEAM :

Programming & Development : Alexandra Zaïnal
Concept & original design : Baudouin d'Aumeries
Assistance for programming : Marc-Olivier Méhu
Technical & hardware support : Manuel Goepfert

Contact : metmap@orbifly.com




SOURCES & CREDITS :

   NOAA